Map

Track Data

SID SEASON NUMBER BASIN SUBBASIN NAME ISO_TIME NATURE LAT LON WMO_WIND WMO_PRES WMO_AGENCY TRACK_TYPE DIST2LAND LANDFALL IFLAG USA_AGENCY USA_ATCF_ID USA_LAT USA_LON USA_RECORD USA_STATUS USA_WIND USA_PRES USA_SSHS USA_R34_NE USA_R34_SE USA_R34_SW USA_R34_NW USA_R50_NE USA_R50_SE USA_R50_SW USA_R50_NW USA_R64_NE USA_R64_SE USA_R64_SW USA_R64_NW USA_POCI USA_ROCI USA_RMW USA_EYE TOKYO_LAT TOKYO_LON TOKYO_GRADE TOKYO_WIND TOKYO_PRES TOKYO_R50_DIR TOKYO_R50_LONG TOKYO_R50_SHORT TOKYO_R30_DIR TOKYO_R30_LONG TOKYO_R30_SHORT TOKYO_LAND CMA_LAT CMA_LON CMA_CAT CMA_WIND CMA_PRES HKO_LAT HKO_LON HKO_CAT HKO_WIND HKO_PRES NEWDELHI_LAT NEWDELHI_LON NEWDELHI_GRADE NEWDELHI_WIND NEWDELHI_PRES NEWDELHI_CI NEWDELHI_DP NEWDELHI_POCI REUNION_LAT REUNION_LON REUNION_TYPE REUNION_WIND REUNION_PRES REUNION_TNUM REUNION_CI REUNION_RMW REUNION_R34_NE REUNION_R34_SE REUNION_R34_SW REUNION_R34_NW REUNION_R50_NE REUNION_R50_SE REUNION_R50_SW REUNION_R50_NW REUNION_R64_NE REUNION_R64_SE REUNION_R64_SW REUNION_R64_NW BOM_LAT BOM_LON BOM_TYPE BOM_WIND BOM_PRES BOM_TNUM BOM_CI BOM_RMW BOM_R34_NE BOM_R34_SE BOM_R34_SW BOM_R34_NW BOM_R50_NE BOM_R50_SE BOM_R50_SW BOM_R50_NW BOM_R64_NE BOM_R64_SE BOM_R64_SW BOM_R64_NW BOM_ROCI BOM_POCI BOM_EYE BOM_POS_METHOD BOM_PRES_METHOD NADI_LAT NADI_LON NADI_CAT NADI_WIND NADI_PRES WELLINGTON_LAT WELLINGTON_LON WELLINGTON_WIND WELLINGTON_PRES DS824_LAT DS824_LON DS824_STAGE DS824_WIND DS824_PRES TD9636_LAT TD9636_LON TD9636_STAGE TD9636_WIND TD9636_PRES TD9635_LAT TD9635_LON TD9635_WIND TD9635_PRES TD9635_ROCI NEUMANN_LAT NEUMANN_LON NEUMANN_CLASS NEUMANN_WIND NEUMANN_PRES MLC_LAT MLC_LON MLC_CLASS MLC_WIND MLC_PRES USA_GUST BOM_GUST BOM_GUST_PER REUNION_GUST REUNION_GUST_PER USA_SEAHGT USA_SEARAD_NE USA_SEARAD_SE USA_SEARAD_SW USA_SEARAD_NW STORM_SPEED STORM_DIR
1963110S12153 1963 38 SP EA NOT_NAMED 1963-04-20 11:00:00 NR -12.1000 153.000 main 301 301 __________O___ -1 -12.1000 153.000 1 2 107
1963110S12153 1963 38 SP EA NOT_NAMED 1963-04-20 12:00:00 TS -12.1116 153.029 main 301 301 O________OP___ jtwc_sh SH481963 -12.1000 153.000 -1 -12.1000 153.000 TC -12.1232 153.059 1 3 109
1963110S12153 1963 38 SP EA NOT_NAMED 1963-04-20 15:00:00 TS -12.1657 153.200 main 326 326 P________PP___ SH481963 -12.1475 153.165 -1 -12.1475 153.165 TC -12.1901 153.246 1 4 105
1963110S12153 1963 38 SP EA NOT_NAMED 1963-04-20 18:00:00 TS -12.2188 153.428 main 344 344 O________OP___ jtwc_sh SH481963 -12.2000 153.400 -1 -12.2000 153.400 TC -12.2471 153.470 1 6 101
1963110S12153 1963 38 SP EA NOT_NAMED 1963-04-20 21:00:00 TS -12.2673 153.756 main 387 387 P________PP___ SH481963 -12.2575 153.755 -1 -12.2575 153.755 TC -12.2868 153.758 1 7 95
1963110S12153 1963 38 SP EA NOT_NAMED 1963-04-20 23:00:00 TS -12.2702 154.012 1004 bom main 407 407 P_____O__PO___ SH481963 -12.2890 154.045 -1 -12.0000 153.800 1004 -12.2890 154.045 TC -12.3000 154.000 1 7 84
1963110S12153 1963 38 SP EA NOT_NAMED 1963-04-21 00:00:00 TS -12.2282 154.130 main 411 411 O_____P__OP_O_ jtwc_sh SH481963 -12.3000 154.200 -1 -12.0219 153.963 1004 -12.3000 154.200 TC -12.3019 154.138 1 -12.0000 154.000 TC 20 1004 9 85
1963110S12153 1963 38 SP EA NOT_NAMED 1963-04-21 03:00:00 TS -12.2161 154.590 main 461 461 P_____P__PP_P_ SH481963 -12.3074 154.678 -1 -12.0851 154.452 1004 -12.3074 154.678 TC -12.2944 154.614 1 -12.0502 154.502 TC 20 1004 9 89
1963110S12153 1963 38 SP EA NOT_NAMED 1963-04-21 06:00:00 TS -12.2145 155.088 main 493 469 O_____P__OP_O_ jtwc_sh SH481963 -12.3000 155.200 -1 -12.1403 154.948 1004 -12.3000 155.200 TC -12.2817 155.153 1 -12.1000 155.000 TC 20 1004 10 90
1963110S12153 1963 38 SP EA NOT_NAMED 1963-04-21 09:00:00 TS -12.2239 155.608 main 469 453 P_____P__PP_P_ SH481963 -12.2850 155.750 -1 -12.1822 155.454 1004 -12.2850 155.750 TC -12.2825 155.721 1 -12.1499 155.493 TC 20 1004 10 92
1963110S12153 1963 38 SP EA NOT_NAMED 1963-04-21 11:00:00 TS -12.2413 155.965 1004 bom main 448 444 P_____O__PO_P_ SH481963 -12.2886 156.120 -1 -12.2000 155.800 1004 -12.2886 156.120 TC -12.3000 156.100 1 -12.1833 155.828 TC 20 1004 10 93
1963110S12153 1963 38 SP EA NOT_NAMED 1963-04-21 12:00:00 TS -12.2526 156.142 main 454 434 O_____P__OP_O_ jtwc_sh SH481963 -12.3000 156.300 -1 -12.2055 155.976 1004 -12.3000 156.300 TC -12.3099 156.274 1 -12.2000 156.000 TC 20 1004 10 95
1963110S12153 1963 38 SP EA NOT_NAMED 1963-04-21 15:00:00 TS -12.3025 156.664 main 431 406 P_____P__PP_P_ SH481963 -12.3773 156.800 -1 -12.2175 156.513 1004 -12.3773 156.800 TC -12.3579 156.795 1 -12.2499 156.543 TC 20 1004 10 97
1963110S12153 1963 38 SP EA NOT_NAMED 1963-04-21 18:00:00 TS -12.3783 157.194 main 406 377 O_____P__OP_O_ jtwc_sh SH481963 -12.5000 157.300 -1 -12.2446 157.063 1004 -12.5000 157.300 TC -12.4427 157.318 1 -12.3000 157.100 TC 20 1004 11 99
1963110S12153 1963 38 SP EA NOT_NAMED 1963-04-21 21:00:00 TS -12.4717 157.741 main 379 360 P_____P__PP_P_ SH481963 -12.6274 157.843 -1 -12.3151 157.623 1004 -12.6274 157.843 TC -12.5769 157.845 1 -12.3199 157.650 TC 20 1004 11 102
1963110S12153 1963 38 SP EA NOT_NAMED 1963-04-21 23:00:00 TS -12.5632 158.110 1004 bom main 364 353 P_____O__PO_P_ SH481963 -12.7359 158.214 -1 -12.4000 158.000 1004 -12.7359 158.214 TC -12.7000 158.200 1 -12.3604 158.017 TC 20 1004 11 105
1963110S12153 1963 38 SP EA NOT_NAMED 1963-04-22 00:00:00 TS -12.6194 158.298 main 353 348 O_____P__OP_O_ jtwc_sh SH481963 -12.8000 158.400 -1 -12.4542 158.199 1003 -12.8000 158.400 TC -12.7621 158.390 1 -12.4000 158.200 TC 20 1004 12 110
1963110S12153 1963 38 SP EA NOT_NAMED 1963-04-22 03:00:00 TS -12.8314 158.867 main 350 350 P_____P__PP_P_ SH481963 -13.0199 158.950 -1 -12.6633 158.807 1002 -13.0199 158.950 TC -12.9882 158.969 1 -12.6123 158.743 TC 22 1003 12 114
1963110S12153 1963 38 SP EA NOT_NAMED 1963-04-22 06:00:00 TS -13.1068 159.434 main 361 348 O_____P__OP_O_ jtwc_sh SH481963 -13.3000 159.500 -1 -12.9347 159.406 1001 -13.3000 159.500 TC -13.2757 159.541 1 -12.9000 159.300 TC 25 1002 13 118
1963110S12153 1963 38 SP MM NOT_NAMED 1963-04-22 09:00:00 TS -13.4208 160.004 main 350 348 P_____P__PP_P_ SH481963 -13.6125 160.073 -1 -13.2590 159.965 1000 -13.6125 160.073 TC -13.6278 160.077 1 -13.1776 159.930 TC 27 1001 13 122
1963110S12153 1963 38 SP MM NOT_NAMED 1963-04-22 11:00:00 TS -13.6633 160.356 1000 bom main 358 354 P_____O__PO_P_ SH481963 -13.8610 160.434 -1 -13.5000 160.300 1000 -13.8610 160.434 TC -13.9000 160.400 1 -13.3860 160.326 TC 29 1000 12 126
1963110S12153 1963 38 SP MM NOT_NAMED 1963-04-22 12:00:00 TS -13.7896 160.519 main 364 360 O_____P__OP_O_ jtwc_sh SH481963 -14.0000 160.600 -1 -13.5991 160.456 999 -14.0000 160.600 TC -14.0385 160.557 1 -13.5000 160.500 TC 30 1000 12 133
1963110S12153 1963 38 SP MM NOT_NAMED 1963-04-22 15:00:00 TS -14.2008 160.949 main 393 390 P_____P__PP_P_ SH481963 -14.4624 161.045 -1 -13.9207 160.878 998 -14.4624 161.045 TC -14.5015 160.989 1 -13.8773 160.888 TC 32 999 12 139
1963110S12153 1963 38 SP MM NOT_NAMED 1963-04-22 18:00:00 TS -14.6758 161.305 main 440 440 O_____P__OP_O_ jtwc_sh SH481963 -15.0000 161.400 -1 -14.3077 161.235 997 -15.0000 161.400 TC -15.0254 161.357 1 -14.3000 161.200 TC 35 998 12 147
1963110S12153 1963 38 SP MM NOT_NAMED 1963-04-22 21:00:00 TS -15.1933 161.617 main 493 493 P_____P__PP_P_ SH481963 -15.5774 161.695 -1 -14.7976 161.532 996 -15.5774 161.695 TC -15.5978 161.650 1 -14.6826 161.573 TC 35 997 12 153
1963110S12153 1963 38 SP MM NOT_NAMED 1963-04-22 23:00:00 TS -15.5802 161.785 996 bom main 512 512 P_____O__PO_P_ SH481963 -15.9890 161.842 -1 -15.2000 161.700 996 -15.9890 161.842 TC -16.0000 161.800 1 -15.0017 161.801 TC 35 996 13 159
1963110S12153 1963 38 SP MM NOT_NAMED 1963-04-23 00:00:00 TS -15.7906 161.861 main 505 469 O_____P__OP_O_ jtwc_sh SH481963 -16.2000 161.900 -1 -15.4412 161.795 996 -16.2000 161.900 TC -16.2022 161.872 1 -15.2000 161.900 TC 35 996 14 164
1963110S12153 1963 38 SP MM NOT_NAMED 1963-04-23 03:00:00 TS -16.4974 162.051 main 464 390 P_____P__PP_P_ SH481963 -16.8425 162.038 -1 -16.2613 162.044 996 -16.8425 162.038 TC -16.8376 162.031 1 -16.0050 162.145 TC 35 996 15 169
1963110S12153 1963 38 SP MM NOT_NAMED 1963-04-23 06:00:00 TS -17.2531 162.162 main 381 325 O_____P__OP_O_ jtwc_sh SH481963 -17.5000 162.100 -1 -17.1478 162.221 996 -17.5000 162.100 TC -17.4991 162.112 1 -16.9000 162.300 TC 35 996 15 174
1963110S12153 1963 38 SP MM NOT_NAMED 1963-04-23 09:00:00 TS -17.9870 162.217 996 bom main 316 283 P_____O__PP_P_ SH481963 -18.1500 162.137 -1 -18.0000 162.300 996 -18.1500 162.137 TC -18.1648 162.124 1 -17.6724 162.395 TC 35 996 15 179
1963110S12153 1963 38 SP MM NOT_NAMED 1963-04-23 11:00:00 TS -18.4593 162.210 main 275 260 P_____P__PO_P_ SH481963 -18.5833 162.122 -1 -18.5032 162.297 996 -18.5833 162.122 TC -18.6000 162.100 1 -18.1609 162.408 TC 35 996 14 0
1963110S12153 1963 38 SP MM NOT_NAMED 1963-04-23 12:00:00 TS -18.6917 162.195 main 260 228 O_____P__OP_O_ jtwc_sh SH481963 -18.8000 162.100 -1 -18.7438 162.277 996 -18.8000 162.100 TC -18.8165 162.089 1 -18.4000 162.400 TC 35 996 14 187
1963110S12153 1963 38 SP MM NOT_NAMED 1963-04-23 15:00:00 TS -19.3808 162.097 main 222 211 P_____P__PP_P_ SH481963 -19.4650 161.973 -1 -19.4153 162.164 996 -19.4650 161.973 TC -19.4591 162.014 1 -19.1375 162.330 TC 35 996 14 190
1963110S12153 1963 38 SP MM NOT_NAMED 1963-04-23 18:00:00 TS -20.0128 161.948 996 bom main 221 218 O_____O__OP_O_ jtwc_sh SH481963 -20.1000 161.800 -1 -20.0000 162.000 996 4 -20.1000 161.800 TC -20.0768 161.886 1 -19.8000 162.200 TC 35 996 12 194
1963110S12153 1963 38 SP MM NOT_NAMED 1963-04-23 21:00:00 TS -20.5580 161.795 main 231 231 P_____P__PP_P_ SH481963 -20.6875 161.650 -1 -20.4881 161.836 996 -20.6875 161.650 TC -20.6509 161.722 1 -20.3224 162.080 TC 35 996 11 196
1963110S12153 1963 38 SP MM NOT_NAMED 1963-04-23 23:00:00 TS -20.8918 161.675 996 bom main 248 248 P_____O__PO_P_ SH481963 -21.0390 161.550 -1 -20.8000 161.700 996 -21.0390 161.550 TC -21.0000 161.600 2 -20.6381 161.970 TC 35 996 11 199
1963110S12153 1963 38 SP MM NOT_NAMED 1963-04-24 00:00:00 TS -21.0567 161.612 main 265 265 O_____P__OP_O_ jtwc_sh SH481963 -21.2000 161.500 -1 -20.9766 161.622 996 -21.2000 161.500 TC -21.1637 161.552 2 -20.8000 161.900 TC 35 996 11 201
1963110S12153 1963 38 SP MM NOT_NAMED 1963-04-24 03:00:00 TS -21.5519 161.404 main 306 306 P_____P__PP_P_ SH481963 -21.6299 161.365 -1 -21.5415 161.347 996 -21.6299 161.365 TC -21.6124 161.394 2 -21.3350 161.622 TC 35 996 11 203
1963110S12153 1963 38 SP MM NOT_NAMED 1963-04-24 06:00:00 TS -22.0329 161.161 main 347 347 O_____P__OP_O_ jtwc_sh SH481963 -22.0000 161.200 -1 -22.1344 161.033 996 -22.0000 161.200 TC -22.0096 161.208 2 -21.9000 161.300 TC 35 996 11 206
1963110S12153 1963 38 SP MM NOT_NAMED 1963-04-24 09:00:00 TS -22.5138 160.894 main 404 404 P_____P__PP_P_ SH481963 -22.3649 160.987 -1 -22.7240 160.708 996 -22.3649 160.987 TC -22.3711 160.981 2 -22.5150 160.993 TC 35 996 11 208
1963110S12153 1963 38 SP MM NOT_NAMED 1963-04-24 11:00:00 TS -22.8195 160.701 996 bom main 441 441 P_____O__PO_P_ SH481963 -22.5916 160.806 -1 -23.1000 160.500 996 -22.5916 160.806 TC -22.6000 160.800 2 -22.9145 160.794 TC 35 996 11 211
1963110S12153 1963 38 SP MM NOT_NAMED 1963-04-24 12:00:00 TS -22.9650 160.600 main 462 462 O_____P__OP_O_ jtwc_sh SH481963 -22.7000 160.700 -1 -23.2803 160.406 996 -22.7000 160.700 TC -22.7100 160.691 2 -23.1000 160.700 TC 35 996 10 216
1963110S12153 1963 38 SP MM NOT_NAMED 1963-04-24 15:00:00 TS -23.3663 160.275 main 512 512 P_____P__PP_P_ SH481963 -23.0001 160.315 -1 -23.8027 160.134 996 -23.0001 160.315 TC -23.0197 160.323 2 -23.5649 160.442 TC 35 996 10 218
1963110S12153 1963 38 SP EA NOT_NAMED 1963-04-24 18:00:00 TS -23.7493 159.943 main 565 565 O_____P__OP_O_ jtwc_sh SH481963 -23.3000 159.900 -1 -24.2904 159.879 996 -23.3000 159.900 TC -23.3232 159.923 2 -24.0000 160.200 TC 35 996 10 217
1963110S12153 1963 38 SP EA NOT_NAMED 1963-04-24 21:00:00 TS -24.1435 159.634 main 615 615 P_____P__PP_P_ SH481963 -23.6199 159.535 -1 -24.7337 159.644 996 -23.6199 159.535 TC -23.6516 159.534 2 -24.5225 159.943 TC 35 996 10 215
1963110S12153 1963 38 SP EA NOT_NAMED 1963-04-24 23:00:00 TS -24.4095 159.444 996 bom main 609 608 P_____O__PO_P_ SH481963 -23.8635 159.308 -1 -25.0000 159.500 996 -23.8635 159.308 TC -23.9000 159.300 1 -24.8535 159.778 TC 35 996 10 212
1963110S12153 1963 38 SP EA NOT_NAMED 1963-04-25 00:00:00 TS -24.5459 159.351 main 608 574 O_____P__OP_O_ jtwc_sh SH481963 -24.0000 159.200 -1 -25.1259 159.418 996 -24.0000 159.200 TC -24.0492 159.187 1 -25.0000 159.700 TC 35 996 10 211
1963110S12153 1963 38 SP EA NOT_NAMED 1963-04-25 03:00:00 TS -24.9527 159.081 main 573 553 P_____P__PP_P_ SH481963 -24.4700 158.863 -1 -25.4661 159.183 996 -24.4700 158.863 TC -24.5383 158.873 1 -25.3300 159.485 TC 35 996 9 209
1963110S12153 1963 38 SP EA NOT_NAMED 1963-04-25 06:00:00 TS -25.3616 158.861 main 554 536 O_____P__OP_O_ jtwc_sh SH481963 -25.0000 158.600 -1 -25.7622 158.984 996 -25.0000 158.600 TC -25.0599 158.618 1 -25.6000 159.300 TC 35 996 9 204
1963110S12153 1963 38 SP EA NOT_NAMED 1963-04-25 09:00:00 TS -25.7680 158.689 main 539 531 P_____P__PP_P_ SH481963 -25.5649 158.433 -1 -26.0297 158.846 996 -25.5649 158.433 TC -25.5767 158.450 1 -25.9075 159.105 TC 35 996 8 198
1963110S12153 1963 38 SP EA NOT_NAMED 1963-04-25 11:00:00 TS -26.0315 158.623 996 bom main 533 533 P_____O__PO_P_ SH481963 -25.9311 158.394 -1 -26.2000 158.800 996 -25.9311 158.394 TC -25.9000 158.400 2 -26.1057 159.019 TC 35 996 8 190
1963110S12153 1963 38 SP EA NOT_NAMED 1963-04-25 12:00:00 TS -26.1552 158.609 main 537 532 O_____P__OP_O_ jtwc_sh SH481963 -26.1000 158.400 -1 -26.2843 158.793 996 -26.1000 158.400 TC -26.0552 158.403 2 -26.2000 159.000 TC 35 996 7 174
1963110S12153 1963 38 SP EA NOT_NAMED 1963-04-25 15:00:00 TS -26.5165 158.683 main 537 529 P_____P__PP_P_ SH481963 -26.5450 158.512 -1 -26.5360 158.831 996 -26.5450 158.512 TC -26.4992 158.495 2 -26.4575 159.062 TC 35 996 7 163
1963110S12153 1963 38 SP EA NOT_NAMED 1963-04-25 18:00:00 TS -26.8390 158.837 main 535 532 O_____P__OP_O_ jtwc_sh SH481963 -26.9000 158.700 -1 -26.7859 158.938 997 -26.9000 158.700 TC -26.8958 158.672 2 -26.7000 159.200 TC 35 997 7 158
1963110S12153 1963 38 SP EA NOT_NAMED 1963-04-25 21:00:00 TS -27.1362 158.969 main 545 540 P_____P__PP_P_ SH481963 -27.1875 158.858 -1 -27.0346 159.088 998 -27.1875 158.858 TC -27.2260 158.877 2 -26.9475 159.313 TC 32 998 6 159
1963110S12153 1963 38 SP EA NOT_NAMED 1963-04-25 23:00:00 TS -27.3146 159.039 999 bom main 540 537 P_____O__PO_P_ SH481963 -27.3360 158.956 -1 -27.2000 159.200 999 -27.3360 158.956 TC -27.4000 159.000 2 -27.1156 159.372 TC 30 998 6 165
1963110S12153 1963 38 SP EA NOT_NAMED 1963-04-26 00:00:00 TS -27.4066 159.042 main 537 537 O________OP_O_ jtwc_sh SH481963 -27.4000 159.000 -1 -27.4000 159.000 TC -27.4714 159.035 2 -27.2000 159.400 TC 30 999 4 167
1963110S12153 1963 38 SP EA NOT_NAMED 1963-04-26 03:00:00 TS -27.5952 159.118 main 543 543 P________PP___ SH481963 -27.5800 159.115 -1 -27.5800 159.115 TC -27.6255 159.124 2 TC 3 155
1963110S12153 1963 38 SP EA NOT_NAMED 1963-04-26 06:00:00 TS -27.7046 159.199 main 552 550 O________OP___ jtwc_sh SH481963 -27.7000 159.200 -1 -27.7000 159.200 TC -27.7139 159.195 2 2 144
1963110S12153 1963 38 SP EA NOT_NAMED 1963-04-26 09:00:00 TS -27.7609 159.253 main 560 560 P________PP___ SH481963 -27.7575 159.250 -1 -27.7575 159.250 TC -27.7678 159.258 2 1 135
1963110S12153 1963 38 SP EA NOT_NAMED 1963-04-26 11:00:00 TS -27.7886 159.287 main 560 560 P________PO___ SH481963 -27.7829 159.280 -1 -27.7829 159.280 TC -27.8000 159.300 2 1 133
1963110S12153 1963 38 SP EA NOT_NAMED 1963-04-26 12:00:00 TS -27.8073 159.309 main 560 560 O________OP___ jtwc_sh SH481963 -27.8000 159.300 -1 -27.8000 159.300 TC -27.8182 159.322 2 2 137
1963110S12153 1963 38 SP EA NOT_NAMED 1963-04-26 15:00:00 TS -27.8839 159.390 main 569 569 P________PP___ SH481963 -27.8850 159.387 -1 -27.8850 159.387 TC -27.8828 159.392 2 2 138
1963110S12153 1963 38 SP EA NOT_NAMED 1963-04-26 18:00:00 TS -27.9754 159.481 main 578 578 O________OP___ jtwc_sh SH481963 -28.0000 159.500 -1 -28.0000 159.500 TC -27.9590 159.468 2 2 139
1963110S12153 1963 38 SP EA NOT_NAMED 1963-04-26 21:00:00 NR -28.0425 159.547 main 578 578 __________P___ SH481963 -1 TC -28.0425 159.547 2 2 140
1963110S12153 1963 38 SP EA NOT_NAMED 1963-04-26 23:00:00 NR -28.1000 159.600 main 587 __________O___ SH481963 -1 TC -28.1000 159.600 1 2 147

Digital Typhoon Data and Search

About IBTrACS Database

This database is a web-friendly format of International Best Track Archive for Climate Stewardship (IBTrACS), a global best track data archive curated by NOAA dating back to 1842.

Updated: 2021-12-08